默认 日期 大小 文件数 浏览量 最新下载 xml
pres磁力链接相关资源由用户搜索指令自动获取,结果来源于网络,本站不存储任何资料,亦不承担任何责任,请于24小时内删除,搜索到1266个磁力,用时1ms。
    {"Armin_van_Buuren_-_A_State_Of_Trance_700_(29-01-2015).mp3": 284211271}
创建时间: 2019-02-15 21:23:40 大小:271.04 MB 文件数量:1 热度:2 最近下载:2021-06-17 16:25:58
    ... , "Tracklist Saint-Germain des Pres Cafe 2001.txt": 581, ... "Various - Saint-Germain des Pres Cafe 2001.ape": 498975820, " ... Various - Saint-Germain des Pres Cafe 2001.cue": 1521, "Various ... - Saint-Germain des Pres Cafe 2001.log": 4046, "Audiochecker ...
创建时间: 2019-02-15 22:34:49 大小:480.15 MB 文件数量:12 热度:6 最近下载:2025-02-09 02:31:02
    {"Cover.jpg": 58684, "17. Fredstone - Up (Original Mix).mp3": 7509223, "10. Dory Badawi - Amia (Original Mix).mp3": 13967745, "25. Rhythmsport - Hope (Original Mix).mp3": 15338651, "16. Stereoliner - Apologies (Club Mix).mp3": 14915499, "15. Sakin Bozkurt ...
创建时间: 2019-02-16 02:50:05 大小:386.02 MB 文件数量:26 热度:3 最近下载:2021-06-17 16:25:58
    {"Pres.za.8.minut.1.uroven.slojnasti.2011.WEBRip.320x.kpk.by.NeoJet.avi": 29206544, "Pres.za.8.minut.2.uroven.slojnasti.2011.WEBRip.320x.kpk.by.NeoJet.avi": 38979050, "Pres.za.8.minut.3.uroven.slojnasti.2011.WEBRip.320x.kpk.by.NeoJet.avi": 26862486}
创建时间: 2019-02-16 16:43:21 大小:90.64 MB 文件数量:3 热度:4 最近下载:2025-04-16 20:36:02
    {"Cover.jpg": 750322, "01. Aquarius - Fly Away (Original).mp3": 14161049, "02. Baghira - Molto Linda (Original).mp3": 14434816, "14. Zouro - Tempo Se Muda (Original).mp3": 15005333, "12. Rey Salinero - Bossamor (Original).mp3": 13196618, "03. Blue Wave - ...
创建时间: 2019-02-17 17:11:03 大小:190.54 MB 文件数量:15 热度:2 最近下载:2025-05-13 04:19:02
    {"INFO.txt": 2560, "TRACKLIST.txt": 18502, "ZAPRASZAM d3rbu5 - KLIK!.html": 585, "VA_-_Gary_D_Pres_D-Trance_Vol_21-3CD-2003 [d3rbu5].rar": 597472069, "VA_-_Gary_D_Pres_D-Trance_Vol_22-3CD-2003 [d3rbu5].rar": 602509324, "VA_-_Gary_D_Pres_D-Trance_Vol_23-3CD ...
创建时间: 2019-02-18 00:23:01 大小:6.25 GB 文件数量:14 热度:8 最近下载:2025-04-04 22:16:02
    {"00. Cover.jpg": 125385, "04. Nick Callaghan - Since '83.mp3": 19175328, "05. Parity - Prism (Original Mix).mp3": 13334355, "09. David Broaders - Celtic Beauty.mp3": 15423108, "03. Sheridan Grout - Puma (Original Mix).mp3": 13510957, "10. Edelways - A ...
创建时间: 2019-02-18 02:55:13 大小:142.36 MB 文件数量:11 热度:1 最近下载:2021-06-17 16:25:58
    {"Art": {"CD1.jpg": 443150, "CD2.jpg": 424077, "CD3.jpg": 430287, "Booklet01.jpg": 1301456, "Booklet02.jpg": 2391935, "Booklet03.jpg": 2057204, "Booklet04.jpg": 2438135, "Booklet05.jpg": 1591051, "Booklet06.jpg": 1766555, "Booklet07.jpg": 1459001, " ...
创建时间: 2019-02-18 11:30:48 大小:1.58 GB 文件数量:78 热度:3 最近下载:2025-02-07 03:31:03
    ... mp3": 17062137, "02.Alex Cosmo pres. Ploom Boom Around CD1 - ... mp3": 10590040, "05.Alex Cosmo pres. Ploom Boom Around CD1 - ... mp3": 14605582, "06.Alex Cosmo pres. Ploom Boom Around CD1 - ... Track19.mp3": 11921240}, "Alex Cosmo pres. Bloom Boom Around 4CD BOOTLEG ...
创建时间: 2019-02-18 20:07:32 大小:627.12 MB 文件数量:62 热度:1 最近下载:2021-06-17 16:25:58
    {"01. Dj Tomix Pres - Diverse Onde Sonore Megamix (Vision 1)": {"DOS.jpg": 20890, "Dj Tomix Pres - Diverse Onde Sonore Megamix (Vision 1).mp3": 113361032}}
创建时间: 2019-02-19 08:50:32 大小:108.13 MB 文件数量:2 热度:1 最近下载:2021-06-17 16:25:58
    {"Credits.txt": 2039, "our cover.jpg": 318536, "Like Us On Facebook.url": 138, "Represent - [Orishas].mp3": 9150158, "A lo cubano - [Orishas].mp3": 9823047, "Get It Right (feat. MØ) - [Diplo].mp3": 6977836, "www.MusicDuty.com - Get More Music.url": 126, " ...
创建时间: 2019-02-20 02:30:37 大小:108.98 MB 文件数量:17 热度:1 最近下载:2021-06-17 16:25:58
    ... Satellite - Saint-Germain -des- Pres.mp3": 11827593, "09. Mo' ... 2004 - VA Saint-Germain-des-Pres Cafe Vol.3": {"Artwork": {" ... 2012 - VA Saint-Germain-des-Pres Cafe Vol.14": {"Artwork": {" ... 2010 - VA Saint-Germain-des-Pres Cafe - The Blue Edition": {"Artwork ...
创建时间: 2019-02-23 03:26:56 大小:3.68 GB 文件数量:486 热度:4 最近下载:2025-01-11 04:44:06
    {"Сover.jpg": 40506, "08.Airdraw - Olaen (Original Mix).mp3": 19686310, "01.Dinka - Lotus (Soundprank Remix).mp3": 18196292, "07.Ad Brown - Tonica (Eximinds Remix).mp3": 15441969, "03.Matt Lange - Resonate (Original Mix).mp3": 18107510, "14.PROFF - I'll ...
创建时间: 2019-02-23 05:16:21 大小:268.19 MB 文件数量:16 热度:3 最近下载:2021-06-17 16:25:58
    {"so8os.jpg": 30978, "torrent downloaded from demonoid.me.txt": 46, "213-book_of_love--boy_(extended_mix).mp3": 7069974, "208-hitlist--into_the_fire_(full_version).mp3": 10459391, "304-david_bowie--lets_dance_(12__version).mp3": 12357838, "211-pil-- ...
创建时间: 2019-02-23 13:39:13 大小:389.82 MB 文件数量:32 热度:1 最近下载:2021-06-17 16:25:58
    ... 1624, "01 - Robert Nickson Pres Rnx - Suffer.flac.auCDtect.txt ... 1222, "02 - Robert Nickson Pres Rnx - Vestfold.flac.auCDtect.txt ... ": 173358, "01 - Robert Nickson Pres Rnx - Suffer.flac": 63407715, ... "02 - Robert Nickson Pres Rnx - Vestfold.flac": 53005948}
创建时间: 2019-02-23 21:13:13 大小:111.19 MB 文件数量:6 热度:2 最近下载:2021-06-17 16:25:58
    {"50. Naaks - Fk Me.mp3": 15881543, "38. Ellby - Control.mp3": 16160531, "12. Andero - Freedom.mp3": 10852451, "36. Antrox - Bubbles.mp3": 14366443, "09. Lisandro - Twister.mp3": 14363312, "05. Party Thieves - Come.mp3": 12721781, "23. Apollo Pan - Dynamic ...
创建时间: 2019-02-25 04:49:29 大小:685.68 MB 文件数量:52 热度:2 最近下载:2024-09-08 15:41:01
    {"00-roger_shah_pres_sunlounger_feat_lorilee-life-web-2011.m3u": 343, "00-roger_shah_pres_sunlounger_feat_lorilee-life-web-2011.nfo": 788, "00-roger_shah_pres_sunlounger_feat_lorilee-life-web-2011.sfv": 393, "00-roger_shah_pres_sunlounger_feat_lorilee-life ...
创建时间: 2019-02-25 15:59:07 大小:81.52 MB 文件数量:9 热度:3 最近下载:2021-06-17 16:25:58
    {"Cover.jpg": 854364, "folder.jpg": 83691, "209. Armand Pena - Se Va.mp3": 7892690, "202. Eddie Thoneick - ADAMU.mp3": 7737006, "208. Antranig - Ride It Out.mp3": 8293937, "211. Antranig - Big Ass Drums.mp3": 8164374, "210. Erick Morillo - Cartagena.mp3": ...
创建时间: 2019-02-27 18:57:40 大小:203.46 MB 文件数量:26 热度:5 最近下载:2025-04-10 02:25:01
    {"Cover.jpg": 31814, "Cirez D - Rise (Original Mix).mp3": 14590373, "Cirez D - Chaos (Original Mix).mp3": 18221186, "Cirez D - Voided (Original Mix).mp3": 18683378, "Cirez D - Deep Inside 04 (Remix).mp3": 17349123, "Cirez D - On Top Baby (Original Mix).mp3 ...
创建时间: 2019-03-05 03:03:36 大小:83.49 MB 文件数量:6 热度:2 最近下载:2025-03-11 01:20:01
    {"Dans.Une.Galaxie.Pres.De.Chez.Vous.1.FRENCH.DVDRiP.XViD.STS.avi": 732821504, "Dans.Une.Galaxie.Pres.De.Chez.Vous.2.FRENCH.DVDRiP.XViD.STS.avi": 732813312, "Dans.Une.Galaxie.Pres.De.Chez.Vous.Les.2.Films.VFQ.DVDRiP.XViD.STS.nfo": 2925}
创建时间: 2019-03-08 12:33:23 大小:1.36 GB 文件数量:3 热度:4 最近下载:2025-05-20 02:20:02